createdAt,value
2023-05-14T00:01:32.603Z,22.75
2023-05-14T00:03:59.728Z,20.80
2023-05-14T00:06:26.848Z,20.00
2023-05-14T00:08:53.850Z,20.85
2023-05-14T00:11:21.443Z,20.20
2023-05-14T00:13:48.437Z,20.20
2023-05-14T00:16:16.089Z,22.38
2023-05-14T00:18:43.244Z,20.48
2023-05-14T00:21:10.409Z,22.70
2023-05-14T00:23:37.362Z,23.65
2023-05-14T00:26:04.463Z,20.98
2023-05-14T00:28:31.467Z,21.75
2023-05-14T00:30:58.540Z,20.85
2023-05-14T00:33:25.901Z,22.52
2023-05-14T00:35:52.927Z,22.90
2023-05-14T00:38:19.880Z,24.08
2023-05-14T00:40:51.338Z,25.13
2023-05-14T00:43:22.698Z,25.67
2023-05-14T00:45:51.722Z,20.10
2023-05-14T00:48:19.525Z,22.40
2023-05-14T00:50:47.152Z,22.48
2023-05-14T00:53:14.801Z,22.52
2023-05-14T00:55:42.674Z,27.33
2023-05-14T00:58:13.828Z,23.38
2023-05-14T01:00:41.807Z,23.42
2023-05-14T01:03:09.403Z,26.25
2023-05-14T01:06:03.209Z,23.52
2023-05-14T01:08:44.352Z,28.10
2023-05-14T01:11:20.025Z,24.15
2023-05-14T01:14:35.070Z,24.50
2023-05-14T01:19:41.673Z,26.38
2023-05-14T01:22:08.930Z,28.60
2023-05-14T01:24:36.140Z,27.67
2023-05-14T01:27:40.508Z,28.05
2023-05-14T01:30:38.737Z,29.48
2023-05-14T01:33:13.513Z,23.75
2023-05-14T01:35:42.846Z,26.00
2023-05-14T01:38:12.494Z,28.67
2023-05-14T01:40:39.938Z,25.25
2023-05-14T01:43:07.035Z,27.13
2023-05-14T01:45:36.938Z,25.33
2023-05-14T01:48:05.438Z,21.92
2023-05-14T01:50:32.531Z,23.75
2023-05-14T01:52:59.586Z,30.30
2023-05-14T01:55:27.637Z,26.38
2023-05-14T01:57:54.858Z,24.63
2023-05-14T02:00:25.515Z,25.33
2023-05-14T02:02:52.847Z,21.83
2023-05-14T02:05:20.116Z,25.75
2023-05-14T02:07:47.153Z,21.60
2023-05-14T02:10:14.184Z,27.52
2023-05-14T02:12:41.293Z,29.80
2023-05-14T02:15:10.948Z,25.00
2023-05-14T02:17:38.592Z,26.15
2023-05-14T02:20:06.300Z,28.98
2023-05-14T02:22:33.309Z,23.65
2023-05-14T02:25:01.134Z,25.08
2023-05-14T02:27:28.149Z,25.15
2023-05-14T02:29:56.607Z,24.15
2023-05-14T02:32:23.769Z,25.38
2023-05-14T02:34:50.851Z,25.95
2023-05-14T02:37:17.845Z,26.58
2023-05-14T02:39:44.882Z,26.00
2023-05-14T02:42:11.944Z,21.80
2023-05-14T02:44:38.894Z,24.60
2023-05-14T02:47:06.212Z,23.23
2023-05-14T02:49:33.204Z,23.00
2023-05-14T02:52:00.958Z,21.98
2023-05-14T02:54:27.973Z,28.95
2023-05-14T02:56:55.018Z,23.20
2023-05-14T02:59:23.692Z,22.88
2023-05-14T03:01:51.253Z,30.98
2023-05-14T03:04:18.632Z,29.02
2023-05-14T03:06:45.623Z,28.25
2023-05-14T03:09:12.570Z,23.85
2023-05-14T03:11:39.628Z,27.98
2023-05-14T03:14:06.559Z,29.20
2023-05-14T03:16:33.645Z,28.83
2023-05-14T03:19:00.757Z,28.13
2023-05-14T03:21:27.960Z,27.17
2023-05-14T03:23:54.987Z,26.23
2023-05-14T03:26:22.110Z,31.83
2023-05-14T03:28:51.923Z,29.27
2023-05-14T03:31:19.318Z,29.67
2023-05-14T03:33:46.345Z,28.45
2023-05-14T03:36:13.391Z,26.73
2023-05-14T03:38:40.392Z,31.02
2023-05-14T03:41:07.426Z,26.35
2023-05-14T03:43:34.372Z,30.02
2023-05-14T03:46:01.440Z,29.67
2023-05-14T03:48:28.656Z,29.48
2023-05-14T03:50:55.914Z,32.50
2023-05-14T03:53:22.900Z,27.85
2023-05-14T03:55:49.940Z,29.83
2023-05-14T03:58:17.514Z,31.67
2023-05-14T04:00:44.669Z,33.97
2023-05-14T04:03:12.042Z,32.30
2023-05-14T04:05:39.206Z,38.40
2023-05-14T04:08:06.987Z,36.80
2023-05-14T04:10:34.029Z,36.45
2023-05-14T04:13:01.124Z,35.53
2023-05-14T04:15:32.293Z,37.10
2023-05-14T04:17:59.412Z,34.30
2023-05-14T04:20:27.888Z,32.65
2023-05-14T04:22:55.524Z,38.38
2023-05-14T04:25:22.497Z,35.78
2023-05-14T04:27:49.909Z,32.78
2023-05-14T04:30:16.900Z,33.83
2023-05-14T04:32:44.380Z,36.15
2023-05-14T04:35:12.231Z,32.15
2023-05-14T04:37:39.329Z,31.30
2023-05-14T04:40:08.243Z,30.35
2023-05-14T04:42:35.356Z,31.67
2023-05-14T04:45:02.381Z,34.53
2023-05-14T04:47:29.791Z,35.90
2023-05-14T04:49:57.876Z,31.30
2023-05-14T04:52:25.233Z,32.35
2023-05-14T04:54:52.414Z,33.50
2023-05-14T04:57:19.445Z,27.73
2023-05-14T04:59:46.502Z,29.73
2023-05-14T05:02:13.472Z,35.90
2023-05-14T05:04:40.434Z,37.03
2023-05-14T05:07:07.564Z,30.77
2023-05-14T05:09:34.568Z,33.38
2023-05-14T05:12:02.006Z,30.90
2023-05-14T05:14:28.987Z,32.28
2023-05-14T05:16:56.110Z,30.75
2023-05-14T05:19:35.851Z,28.98
2023-05-14T05:22:10.523Z,30.17
2023-05-14T05:24:37.692Z,28.55
2023-05-14T05:27:05.595Z,32.20
2023-05-14T05:29:32.731Z,27.80
2023-05-14T05:31:59.864Z,29.00
2023-05-14T05:34:27.175Z,27.80
2023-05-14T05:36:54.183Z,28.85
2023-05-14T05:39:21.246Z,27.25
2023-05-14T05:41:48.373Z,28.15
2023-05-14T05:44:15.401Z,26.67
2023-05-14T05:46:42.529Z,29.55
2023-05-14T05:49:09.464Z,28.98
2023-05-14T05:51:36.464Z,31.05
2023-05-14T05:54:03.576Z,27.17
2023-05-14T05:56:30.839Z,28.63
2023-05-14T05:58:57.806Z,28.02
2023-05-14T06:01:24.834Z,29.05
2023-05-14T06:03:51.840Z,30.05
2023-05-14T06:06:18.842Z,30.50
2023-05-14T06:08:45.786Z,27.65
2023-05-14T06:11:12.802Z,28.40
2023-05-14T06:13:39.776Z,31.65
2023-05-14T06:16:06.889Z,30.27
2023-05-14T06:18:33.926Z,30.00
2023-05-14T06:21:00.969Z,30.10
2023-05-14T06:23:27.944Z,29.20
2023-05-14T06:25:54.951Z,31.23
2023-05-14T06:28:22.020Z,31.23
2023-05-14T06:30:54.003Z,37.97
2023-05-14T06:33:29.663Z,34.63
2023-05-14T06:36:01.011Z,36.17
2023-05-14T06:38:28.082Z,39.95
2023-05-14T06:40:55.085Z,37.65
2023-05-14T06:43:22.292Z,37.28
2023-05-14T06:45:50.204Z,43.53
2023-05-14T06:48:21.423Z,44.60
2023-05-14T06:50:49.445Z,46.40
2023-05-14T06:53:16.518Z,54.88
2023-05-14T06:55:43.580Z,42.25
2023-05-14T06:58:10.660Z,47.38
2023-05-14T07:00:37.690Z,41.25
2023-05-14T07:03:04.826Z,43.33
2023-05-14T07:05:32.391Z,42.55
2023-05-14T07:07:59.774Z,39.92
2023-05-14T07:10:26.869Z,43.30
2023-05-14T07:12:53.860Z,46.35
2023-05-14T07:15:21.262Z,49.85
2023-05-14T07:17:48.300Z,40.95
2023-05-14T07:20:15.334Z,48.10
2023-05-14T07:22:42.301Z,40.78
2023-05-14T07:25:09.456Z,41.50
2023-05-14T07:27:36.445Z,42.30
2023-05-14T07:30:03.625Z,47.67
2023-05-14T07:32:30.779Z,46.85
2023-05-14T07:34:57.809Z,45.42
2023-05-14T07:37:26.097Z,42.60
2023-05-14T07:39:53.952Z,42.78
2023-05-14T07:42:34.422Z,37.60
2023-05-14T07:45:02.009Z,42.38
2023-05-14T07:47:29.260Z,36.97
2023-05-14T07:49:57.079Z,40.28
2023-05-14T07:52:25.070Z,36.58
2023-05-14T07:54:52.544Z,38.45
2023-05-14T07:57:20.247Z,35.53
2023-05-14T07:59:48.313Z,34.90
2023-05-14T08:02:16.960Z,32.67
2023-05-14T08:04:44.468Z,33.72
2023-05-14T08:07:11.667Z,29.67
2023-05-14T08:09:38.704Z,36.13
2023-05-14T08:12:06.252Z,34.70
2023-05-14T08:14:33.313Z,34.05
2023-05-14T08:17:00.484Z,31.25
2023-05-14T08:19:27.880Z,35.45
2023-05-14T08:21:54.936Z,38.95
2023-05-14T08:24:21.979Z,30.27
2023-05-14T08:26:49.045Z,36.13
2023-05-14T08:29:16.685Z,31.77
2023-05-14T08:31:44.154Z,34.20
2023-05-14T08:34:11.301Z,35.78
2023-05-14T08:36:39.205Z,36.88
2023-05-14T08:39:07.759Z,36.88
2023-05-14T08:41:35.572Z,36.10
2023-05-14T08:44:18.128Z,36.33
2023-05-14T08:46:45.947Z,35.88
2023-05-14T08:49:25.483Z,34.03
2023-05-14T08:51:52.591Z,36.30
2023-05-14T08:54:22.599Z,37.22
2023-05-14T08:56:52.077Z,37.78
2023-05-14T08:59:19.820Z,36.22
2023-05-14T09:01:49.203Z,34.72
2023-05-14T09:04:19.541Z,38.72
2023-05-14T09:06:50.073Z,28.10
2023-05-14T09:09:17.609Z,28.80
2023-05-14T09:11:48.386Z,28.52
2023-05-14T09:14:15.996Z,29.77
2023-05-14T09:16:46.211Z,27.20
2023-05-14T09:19:14.186Z,25.90
2023-05-14T09:21:42.342Z,22.92
2023-05-14T09:24:09.485Z,23.13
2023-05-14T09:26:36.900Z,23.52
2023-05-14T09:29:04.268Z,23.05
2023-05-14T09:31:32.713Z,25.10
2023-05-14T09:34:00.685Z,21.42
2023-05-14T09:36:28.460Z,18.70
2023-05-14T09:38:58.636Z,19.50
2023-05-14T09:41:25.810Z,17.88
2023-05-14T09:43:52.982Z,19.05
2023-05-14T09:46:20.038Z,16.95
2023-05-14T09:48:47.001Z,20.92
2023-05-14T09:51:14.174Z,18.10
2023-05-14T09:53:43.371Z,20.50
2023-05-14T09:56:10.590Z,18.70
2023-05-14T09:58:37.537Z,18.58
2023-05-14T10:01:06.112Z,16.25
2023-05-14T10:03:33.200Z,15.85
2023-05-14T10:06:05.747Z,16.88
2023-05-14T10:08:41.304Z,16.98
2023-05-14T10:11:22.446Z,17.27
2023-05-14T10:14:18.694Z,18.15
2023-05-14T10:16:51.252Z,15.45
2023-05-14T10:19:21.514Z,18.08
2023-05-14T10:21:56.078Z,18.35
2023-05-14T10:24:24.582Z,19.67
2023-05-14T10:26:52.266Z,15.13
2023-05-14T10:29:19.344Z,18.65
2023-05-14T10:31:55.766Z,15.05
2023-05-14T10:34:37.290Z,16.90
2023-05-14T10:37:10.609Z,15.07
2023-05-14T10:39:51.067Z,14.30
2023-05-14T10:42:27.240Z,15.23
2023-05-14T10:45:01.641Z,12.95
2023-05-14T10:47:29.604Z,15.10
2023-05-14T10:49:59.118Z,14.30
2023-05-14T10:52:26.738Z,16.80
2023-05-14T10:55:03.587Z,11.57
2023-05-14T10:57:32.441Z,12.10
2023-05-14T11:00:03.526Z,15.38
2023-05-14T11:02:33.195Z,14.93
2023-05-14T11:05:05.637Z,11.30
2023-05-14T11:07:37.995Z,14.02
2023-05-14T11:10:09.689Z,11.40
2023-05-14T11:12:41.639Z,16.42
2023-05-14T11:15:10.624Z,13.40
2023-05-14T11:17:40.141Z,15.13
2023-05-14T11:20:08.165Z,12.07
2023-05-14T11:22:36.578Z,12.52
2023-05-14T11:25:04.453Z,13.70
2023-05-14T11:27:34.130Z,10.88
2023-05-14T11:30:01.347Z,14.60
2023-05-14T11:32:28.389Z,11.68
2023-05-14T11:34:56.024Z,11.13
2023-05-14T11:37:23.063Z,12.63
2023-05-14T11:39:55.849Z,12.48
2023-05-14T11:42:23.811Z,9.50
2023-05-14T11:44:52.161Z,13.18
2023-05-14T11:47:21.339Z,12.02
2023-05-14T11:49:49.515Z,13.05
2023-05-14T11:52:19.622Z,12.90
2023-05-14T11:54:47.096Z,10.60
2023-05-14T11:57:16.530Z,13.45
2023-05-14T11:59:44.223Z,13.57
2023-05-14T12:02:19.694Z,12.48
2023-05-14T12:04:53.695Z,12.95
2023-05-14T12:07:20.944Z,10.25
2023-05-14T12:09:49.799Z,11.02
2023-05-14T12:12:25.884Z,12.63
2023-05-14T12:14:53.061Z,10.63
2023-05-14T12:17:21.806Z,11.45
2023-05-14T12:19:51.085Z,11.65
2023-05-14T12:22:20.065Z,9.57
2023-05-14T12:24:55.026Z,9.45
2023-05-14T12:27:24.391Z,10.45
2023-05-14T12:30:09.344Z,13.40
2023-05-14T12:32:46.039Z,10.95
2023-05-14T12:35:13.111Z,11.82
2023-05-14T12:37:40.208Z,10.85
2023-05-14T12:40:10.639Z,12.10
2023-05-14T12:42:37.776Z,11.55
2023-05-14T12:45:08.003Z,8.90
2023-05-14T12:47:36.475Z,9.80
2023-05-14T12:50:04.151Z,8.25
2023-05-14T12:55:01.542Z,10.60
2023-05-14T12:57:30.246Z,11.48
2023-05-14T12:59:58.006Z,12.77
2023-05-14T13:02:24.973Z,11.13
2023-05-14T13:04:51.952Z,10.70
2023-05-14T13:07:18.963Z,11.35
2023-05-14T13:09:46.050Z,11.25
2023-05-14T13:12:13.034Z,10.35
2023-05-14T13:14:40.058Z,12.35
2023-05-14T13:17:08.125Z,10.20
2023-05-14T13:19:35.335Z,8.95
2023-05-14T13:22:02.383Z,10.60
2023-05-14T13:24:29.568Z,13.82
2023-05-14T13:26:56.798Z,10.70
2023-05-14T13:29:24.588Z,11.55
2023-05-14T13:31:51.757Z,10.20
2023-05-14T13:34:19.076Z,8.57
2023-05-14T13:36:47.174Z,11.82
2023-05-14T13:39:14.776Z,7.60
2023-05-14T13:41:42.141Z,7.85
2023-05-14T13:44:09.197Z,8.25
2023-05-14T13:46:36.185Z,7.43
2023-05-14T13:49:03.425Z,7.07
2023-05-14T13:51:31.281Z,8.77
2023-05-14T13:53:58.336Z,8.43
2023-05-14T13:56:25.984Z,9.10
2023-05-14T13:58:53.052Z,9.30
2023-05-14T14:01:20.013Z,9.55
2023-05-14T14:03:47.181Z,10.75
2023-05-14T14:06:14.106Z,9.35
2023-05-14T14:08:41.097Z,9.32
2023-05-14T14:11:08.097Z,11.80
2023-05-14T14:13:35.155Z,8.48
2023-05-14T14:16:03.605Z,7.60
2023-05-14T14:18:30.692Z,7.60
2023-05-14T14:20:57.849Z,7.78
2023-05-14T14:23:24.859Z,10.98
2023-05-14T14:25:51.883Z,9.60
2023-05-14T14:28:19.156Z,9.98
2023-05-14T14:30:46.193Z,10.52
2023-05-14T14:33:16.343Z,7.55
2023-05-14T14:35:43.419Z,9.25
2023-05-14T14:38:10.581Z,8.40
2023-05-14T14:40:37.718Z,8.70
2023-05-14T14:43:04.697Z,11.40
2023-05-14T14:45:33.161Z,10.65
2023-05-14T14:48:39.035Z,12.15
2023-05-14T14:51:07.944Z,14.30
2023-05-14T14:53:37.123Z,10.85
2023-05-14T14:56:04.942Z,15.27
2023-05-14T14:58:32.173Z,11.18
2023-05-14T15:01:01.192Z,9.75
2023-05-14T15:03:29.049Z,12.57
2023-05-14T15:05:56.357Z,12.18
2023-05-14T15:08:30.296Z,12.90
2023-05-14T15:10:57.434Z,17.92
2023-05-14T15:13:24.806Z,11.60
2023-05-14T15:15:52.629Z,15.20
2023-05-14T15:18:19.780Z,12.80
2023-05-14T15:20:46.985Z,12.52
2023-05-14T15:23:14.033Z,13.35
2023-05-14T15:25:41.072Z,12.00
2023-05-14T15:28:08.146Z,11.25
2023-05-14T15:30:35.349Z,13.90
2023-05-14T15:33:02.584Z,13.07
2023-05-14T15:35:29.700Z,10.00
2023-05-14T15:37:59.936Z,12.75
2023-05-14T15:40:29.799Z,10.45
2023-05-14T15:42:56.749Z,10.25
2023-05-14T15:45:23.897Z,10.85
2023-05-14T15:47:51.078Z,12.73
2023-05-14T15:50:18.175Z,8.82
2023-05-14T15:52:45.449Z,8.15
2023-05-14T15:55:12.548Z,9.32
2023-05-14T15:57:39.523Z,11.70
2023-05-14T16:00:12.773Z,9.60
2023-05-14T16:02:40.037Z,9.93
2023-05-14T16:05:08.346Z,9.88
2023-05-14T16:07:35.954Z,10.85
2023-05-14T16:10:03.348Z,13.15
2023-05-14T16:12:30.456Z,13.43
2023-05-14T16:14:57.747Z,13.05
2023-05-14T16:17:24.934Z,8.38
2023-05-14T16:19:53.456Z,11.60
2023-05-14T16:22:22.483Z,10.18
2023-05-14T16:24:49.430Z,12.48
2023-05-14T16:27:18.880Z,9.02
2023-05-14T16:29:45.939Z,8.82
2023-05-14T16:32:13.071Z,9.30
2023-05-14T16:34:40.588Z,12.73
2023-05-14T16:37:08.103Z,8.82
2023-05-14T16:39:35.106Z,10.02
2023-05-14T16:42:01.999Z,10.27
2023-05-14T16:44:29.023Z,10.80
2023-05-14T16:46:56.628Z,9.05
2023-05-14T16:49:23.699Z,10.35
2023-05-14T16:51:50.706Z,12.57
2023-05-14T16:54:17.702Z,8.13
2023-05-14T16:56:48.150Z,9.25
2023-05-14T16:59:16.819Z,7.32
2023-05-14T17:01:44.538Z,9.05
2023-05-14T17:04:11.736Z,7.25
2023-05-14T17:06:38.890Z,7.18
2023-05-14T17:09:06.944Z,9.95
2023-05-14T17:11:34.008Z,9.52
2023-05-14T17:14:01.057Z,8.10
2023-05-14T17:16:28.345Z,10.15
2023-05-14T17:18:55.474Z,9.43
2023-05-14T17:21:22.476Z,9.50
2023-05-14T17:23:49.789Z,11.00
2023-05-14T17:26:16.870Z,10.88
2023-05-14T17:28:43.901Z,12.45
2023-05-14T17:31:10.828Z,11.05
2023-05-14T17:33:37.849Z,13.70
2023-05-14T17:36:05.050Z,10.40
2023-05-14T17:38:32.149Z,10.52
2023-05-14T17:40:59.385Z,10.23
2023-05-14T17:43:26.369Z,10.63
2023-05-14T17:45:54.802Z,12.98
2023-05-14T17:48:23.949Z,10.55
2023-05-14T17:50:54.122Z,12.00
2023-05-14T17:53:21.374Z,14.23
2023-05-14T17:55:48.558Z,14.35
2023-05-14T17:58:16.273Z,14.38
2023-05-14T18:00:43.992Z,12.88
2023-05-14T18:03:11.602Z,13.32
2023-05-14T18:05:38.924Z,11.68
2023-05-14T18:08:05.983Z,10.43
2023-05-14T18:10:32.966Z,12.25
2023-05-14T18:13:00.070Z,12.80
2023-05-14T18:15:27.490Z,14.05
2023-05-14T18:17:54.868Z,12.95
2023-05-14T18:20:22.038Z,12.88
2023-05-14T18:22:52.386Z,11.77
2023-05-14T18:25:19.494Z,11.63
2023-05-14T18:27:47.068Z,11.82
2023-05-14T18:30:15.752Z,12.60
2023-05-14T18:32:44.487Z,11.65
2023-05-14T18:35:13.170Z,12.63
2023-05-14T18:37:40.966Z,12.07
2023-05-14T18:40:08.934Z,14.73
2023-05-14T18:42:35.915Z,11.77
2023-05-14T18:45:04.202Z,13.30
2023-05-14T18:47:32.034Z,12.88
2023-05-14T18:50:01.810Z,17.75
2023-05-14T18:52:30.432Z,12.98
2023-05-14T18:54:57.355Z,12.10
2023-05-14T18:57:25.693Z,13.63
2023-05-14T18:59:52.851Z,12.55
2023-05-14T19:02:19.906Z,10.90
2023-05-14T19:07:16.957Z,11.65
2023-05-14T19:09:43.900Z,13.98
2023-05-14T19:12:10.943Z,15.38
2023-05-14T19:14:38.198Z,15.38
2023-05-14T19:17:05.665Z,12.65
2023-05-14T19:19:33.145Z,14.90
2023-05-14T19:22:02.830Z,12.20
2023-05-14T19:24:30.379Z,11.98
2023-05-14T19:26:57.517Z,10.80
2023-05-14T19:29:24.921Z,16.50
2023-05-14T19:31:52.068Z,12.40
2023-05-14T19:34:19.231Z,16.30
2023-05-14T19:36:46.400Z,14.48
2023-05-14T19:39:13.523Z,16.08
2023-05-14T19:41:40.676Z,20.65
2023-05-14T19:44:07.909Z,14.65
2023-05-14T19:46:35.090Z,18.30
2023-05-14T19:49:02.086Z,20.58
2023-05-14T19:51:29.056Z,15.90
2023-05-14T19:53:56.203Z,20.55
2023-05-14T19:56:24.639Z,19.73
2023-05-14T19:58:52.753Z,23.63
2023-05-14T20:01:21.125Z,19.67
2023-05-14T20:03:48.240Z,20.02
2023-05-14T20:06:15.620Z,19.40
2023-05-14T20:08:42.626Z,20.75
2023-05-14T20:11:09.586Z,21.83
2023-05-14T20:13:36.803Z,18.88
2023-05-14T20:16:03.870Z,17.95
2023-05-14T20:18:31.273Z,19.50
2023-05-14T20:20:58.455Z,18.60
2023-05-14T20:23:25.468Z,21.05
2023-05-14T20:25:52.598Z,20.50
2023-05-14T20:28:19.502Z,21.50
2023-05-14T20:30:46.591Z,23.02
2023-05-14T20:33:14.971Z,23.10
2023-05-14T20:35:43.948Z,26.70
2023-05-14T20:38:12.908Z,23.90
2023-05-14T20:40:40.469Z,25.90
2023-05-14T20:43:07.538Z,26.50
2023-05-14T20:45:34.654Z,27.45
2023-05-14T20:48:01.805Z,26.08
2023-05-14T20:50:28.899Z,29.05
2023-05-14T20:52:56.153Z,25.55
2023-05-14T20:55:23.577Z,27.88
2023-05-14T20:57:50.899Z,26.98
2023-05-14T21:00:22.469Z,25.65
2023-05-14T21:02:49.978Z,26.70
2023-05-14T21:05:17.484Z,28.67
2023-05-14T21:07:44.602Z,28.27
2023-05-14T21:10:11.768Z,29.17
2023-05-14T21:12:38.809Z,28.30
2023-05-14T21:15:06.209Z,27.73
2023-05-14T21:17:33.220Z,26.33
2023-05-14T21:20:00.903Z,26.50
2023-05-14T21:22:28.087Z,25.67
2023-05-14T21:24:55.762Z,28.80
2023-05-14T21:27:23.205Z,28.63
2023-05-14T21:29:50.287Z,30.13
2023-05-14T21:32:17.976Z,26.40
2023-05-14T21:34:44.965Z,24.67
2023-05-14T21:37:12.151Z,27.30
2023-05-14T21:39:39.129Z,27.85
2023-05-14T21:42:06.435Z,25.60
2023-05-14T21:44:33.409Z,23.60
2023-05-14T21:47:00.498Z,25.30
2023-05-14T21:49:27.422Z,25.35
2023-05-14T21:51:54.699Z,25.65
2023-05-14T21:54:21.789Z,26.83
2023-05-14T21:56:48.964Z,27.17
2023-05-14T21:59:15.967Z,26.13
2023-05-14T22:04:13.254Z,25.17
2023-05-14T22:06:40.516Z,26.45
2023-05-14T22:09:07.565Z,26.38
2023-05-14T22:11:34.497Z,29.35
2023-05-14T22:14:01.542Z,32.45
2023-05-14T22:16:28.606Z,30.35
2023-05-14T22:18:55.746Z,31.48
2023-05-14T22:21:22.739Z,32.58
2023-05-14T22:23:50.421Z,31.70
2023-05-14T22:26:17.424Z,33.90
2023-05-14T22:28:44.456Z,33.10
2023-05-14T22:31:11.553Z,33.33
2023-05-14T22:33:38.678Z,31.88
2023-05-14T22:36:07.102Z,35.63
2023-05-14T22:38:34.490Z,34.20
2023-05-14T22:41:01.452Z,36.67
2023-05-14T22:43:28.570Z,35.53
2023-05-14T22:45:55.698Z,36.03
2023-05-14T22:48:22.808Z,34.47
2023-05-14T22:50:49.763Z,38.30
2023-05-14T22:53:16.767Z,34.85
2023-05-14T22:55:43.937Z,36.30
2023-05-14T22:58:11.363Z,40.92
2023-05-14T23:00:38.306Z,42.70
2023-05-14T23:03:05.460Z,44.13
2023-05-14T23:05:32.545Z,44.95
2023-05-14T23:07:59.579Z,45.92
2023-05-14T23:10:26.560Z,49.67
2023-05-14T23:12:53.616Z,47.45
2023-05-14T23:15:20.590Z,49.78
2023-05-14T23:17:47.651Z,62.13
2023-05-14T23:20:15.060Z,50.70
2023-05-14T23:22:42.122Z,51.10
2023-05-14T23:25:09.578Z,47.45
2023-05-14T23:27:36.650Z,49.40
2023-05-14T23:30:04.298Z,49.50
2023-05-14T23:32:31.377Z,51.53
2023-05-14T23:34:58.376Z,52.10
2023-05-14T23:37:25.683Z,53.42
2023-05-14T23:39:53.221Z,48.08
2023-05-14T23:42:20.779Z,52.65
2023-05-14T23:44:48.098Z,57.83
2023-05-14T23:47:15.195Z,52.17
2023-05-14T23:49:42.265Z,57.35
2023-05-14T23:52:09.314Z,60.65
2023-05-14T23:54:36.313Z,52.75
2023-05-14T23:57:04.511Z,56.10
2023-05-14T23:59:31.489Z,52.83
